Aérodrome :
LOGIN :

S'inscrire | Disclaimer

   EN    FR    IT 

 










Légende :    VFR   VFR Marginal   IFR   IFR Intensif   IFR Très Intensif
Visi : 
Plafond : 
>= 8 km
>= 3000ft
5 à 8 km
1000 à 3000 ft
1500m à 5 km
500 à 1000 ft
800 à 1500m
200 à 500 ft
< 800m
< 200 ft
Symboles :   Orages  Brouillard  Fortes neiges  Fortes précipitations  Vent > 20 kt
SIGMETs :   Divers  Orages  Givrage  Turbulence  Onde Orograph.  Cendres Volcan.







- Altitude de l'aérodrome : 1895 ft


LSMM - Meiringen

DERNIER METAR :
  • 240650Z VRB05KT 5000 RA BKN037 OVC047 10/06 Q1029 RERA RMK WHT

METARs EXPIRÉS :
  • 240620Z VRB07KT 4000 +RA FEW020 SCT032 OVC043 10/06 Q1028 RMK GRN
  • 240550Z VRB06KT 9000 RA SCT022 BKN031 OVC046 11/07 Q1027 RMK BLU
  • 240520Z 03013KT 350V100 9999 -SHRA FEW018 SCT022 OVC026 11/07 Q1027 RMK BLU
  • 240450Z 03010KT 350V070 9999 -SHRA BKN018 BKN022 OVC032 12/06 Q1026 RMK WHT
  • 240420Z AUTO 04014G24KT 010V070 9999NDV FEW016 BKN018 OVC025 12/07 Q1026 RMK

Prévision TAF périmée.
Pas de NOTAMs connus pour ce terrain.
1 SIGMET publié pour la FIR Switzerland (LSAS) :
 
Turbulence forte
LSAS SIGMET 5 VALID 240600/240900 LSZH
LSAS SWITZERLAND FIR SEV TURB FCST WI N4648 E01033 - N4631 E01031 - N4612 E01009 - N4549 E00901 - N4548 E00705 - N4605 E00646 - N4644 E00841 - N4648 E01033 SFC/FL140 STNR NC=



MET'MAP, la Météo Aéronautique d'un coup d'oeil ! - Copyright ORBIFLY Décembre 2007 - Disclaimer

ORBIFLY MET'MAP TEAM :

Programmation & Développement : Alexandra Zaïnal
Conception & Développement : Baudouin d'Aumeries
Co-Programmation & Développement : Marc-Olivier Méhu
Soutien technique & logistique : Manuel Goepfert

Contact : metmap@orbifly.com




SOURCES & CREDITS :

   NOAA